createdAt,value
2018-11-03T00:01:27.645Z,100.00
2018-11-03T00:03:56.127Z,100.00
2018-11-03T00:06:24.628Z,100.00
2018-11-03T00:08:53.139Z,100.00
2018-11-03T00:11:21.595Z,100.00
2018-11-03T00:13:50.124Z,100.00
2018-11-03T00:16:18.607Z,99.88
2018-11-03T00:18:47.384Z,97.41
2018-11-03T00:21:15.864Z,95.58
2018-11-03T00:23:44.406Z,100.00
2018-11-03T00:26:12.892Z,97.30
2018-11-03T00:28:41.404Z,100.00
2018-11-03T00:31:09.914Z,96.65
2018-11-03T00:33:38.397Z,98.68
2018-11-03T00:36:07.229Z,99.28
2018-11-03T00:38:35.744Z,98.95
2018-11-03T00:41:04.288Z,100.00
2018-11-03T00:43:32.756Z,100.00
2018-11-03T00:46:01.256Z,100.00
2018-11-03T00:48:29.741Z,100.00
2018-11-03T00:50:58.204Z,99.64
2018-11-03T00:53:26.672Z,100.00
2018-11-03T00:55:55.171Z,100.00
2018-11-03T00:58:23.677Z,100.00
2018-11-03T01:00:52.128Z,100.00
2018-11-03T01:03:20.675Z,100.00
2018-11-03T01:05:49.131Z,100.00
2018-11-03T01:08:17.612Z,100.00
2018-11-03T01:10:46.114Z,100.00
2018-11-03T01:13:14.571Z,100.00
2018-11-03T01:15:43.080Z,100.00
2018-11-03T01:18:11.542Z,100.00
2018-11-03T01:20:40.249Z,100.00
2018-11-03T01:23:09.028Z,100.00
2018-11-03T01:25:37.515Z,100.00
2018-11-03T01:28:06.028Z,100.00
2018-11-03T01:30:34.908Z,100.00
2018-11-03T01:33:03.397Z,100.00
2018-11-03T01:35:31.929Z,100.00
2018-11-03T01:38:00.413Z,100.00
2018-11-03T01:40:28.918Z,100.00
2018-11-03T01:42:57.429Z,100.00
2018-11-03T01:45:26.013Z,100.00
2018-11-03T01:47:54.518Z,100.00
2018-11-03T01:50:23.132Z,100.00
2018-11-03T01:52:51.608Z,100.00
2018-11-03T01:55:20.092Z,99.87
2018-11-03T01:57:48.599Z,100.00
2018-11-03T02:00:17.092Z,100.00
2018-11-03T02:02:45.579Z,100.00
2018-11-03T02:05:14.127Z,100.00
2018-11-03T02:07:42.668Z,100.00
2018-11-03T02:10:12.256Z,100.00
2018-11-03T02:12:41.007Z,100.00
2018-11-03T02:15:09.924Z,100.00
2018-11-03T02:17:38.908Z,100.00
2018-11-03T02:20:08.614Z,100.00
2018-11-03T02:22:37.512Z,100.00
2018-11-03T02:25:06.445Z,100.00
2018-11-03T02:27:34.963Z,100.00
2018-11-03T02:30:03.888Z,99.84
2018-11-03T02:32:32.641Z,100.00
2018-11-03T02:35:01.491Z,100.00
2018-11-03T02:37:29.992Z,100.00
2018-11-03T02:39:58.460Z,100.00
2018-11-03T02:42:26.959Z,100.00
2018-11-03T02:44:55.466Z,100.00
2018-11-03T02:47:24.028Z,100.00
2018-11-03T02:49:53.017Z,100.00
2018-11-03T02:52:21.496Z,100.00
2018-11-03T02:54:50.216Z,100.00
2018-11-03T02:57:18.732Z,100.00
2018-11-03T02:59:47.548Z,100.00
2018-11-03T03:02:16.065Z,100.00
2018-11-03T03:04:44.828Z,100.00
2018-11-03T03:07:13.337Z,100.00
2018-11-03T03:09:42.213Z,100.00
2018-11-03T03:12:10.704Z,100.00
2018-11-03T03:14:39.189Z,100.00
2018-11-03T03:17:07.707Z,100.00
2018-11-03T03:19:36.233Z,100.00
2018-11-03T03:22:04.783Z,100.00
2018-11-03T03:24:33.504Z,100.00
2018-11-03T03:27:01.992Z,100.00
2018-11-03T03:29:30.820Z,100.00
2018-11-03T03:31:59.207Z,100.00
2018-11-03T03:34:27.719Z,100.00
2018-11-03T03:36:56.350Z,100.00
2018-11-03T03:39:24.824Z,100.00
2018-11-03T03:41:53.339Z,100.00
2018-11-03T03:44:21.813Z,100.00
2018-11-03T03:46:50.601Z,100.00
2018-11-03T03:49:19.235Z,100.00
2018-11-03T03:51:47.720Z,100.00
2018-11-03T03:54:16.180Z,100.00
2018-11-03T03:56:44.659Z,100.00
2018-11-03T03:59:13.148Z,100.00
2018-11-03T04:01:41.915Z,100.00
2018-11-03T04:04:10.394Z,100.00
2018-11-03T04:06:38.870Z,100.00
2018-11-03T04:09:08.443Z,100.00
2018-11-03T04:14:36.079Z,100.00
2018-11-03T04:17:04.735Z,100.00
2018-11-03T04:19:33.277Z,100.00
2018-11-03T04:22:01.779Z,100.00
2018-11-03T04:24:30.338Z,100.00
2018-11-03T04:26:58.819Z,100.00
2018-11-03T04:29:27.312Z,100.00
2018-11-03T04:31:55.789Z,100.00
2018-11-03T04:34:24.292Z,98.39
2018-11-03T04:36:52.818Z,94.63
2018-11-03T04:39:21.310Z,91.54
2018-11-03T04:41:49.796Z,93.38
2018-11-03T04:44:18.292Z,92.23
2018-11-03T04:46:46.823Z,91.37
2018-11-03T04:49:15.635Z,90.29
2018-11-03T04:51:44.169Z,90.28
2018-11-03T04:54:12.702Z,90.37
2018-11-03T04:56:41.227Z,90.71
2018-11-03T04:59:12.693Z,92.52
2018-11-03T05:01:41.188Z,96.14
2018-11-03T05:04:09.683Z,96.57
2018-11-03T05:06:38.139Z,97.97
2018-11-03T05:09:09.129Z,99.73
2018-11-03T05:11:37.615Z,100.00
2018-11-03T05:14:07.379Z,100.00
2018-11-03T05:16:36.143Z,98.52
2018-11-03T05:19:04.682Z,100.00
2018-11-03T05:21:33.196Z,100.00
2018-11-03T05:24:01.746Z,100.00
2018-11-03T05:26:31.207Z,100.00
2018-11-03T05:28:59.672Z,100.00
2018-11-03T05:31:28.447Z,100.00
2018-11-03T05:33:56.967Z,100.00
2018-11-03T05:36:25.768Z,100.00
2018-11-03T05:38:54.272Z,99.44
2018-11-03T05:41:22.723Z,100.00
2018-11-03T05:43:51.236Z,100.00
2018-11-03T05:46:20.104Z,99.17
2018-11-03T05:48:48.520Z,99.68
2018-11-03T05:51:17.256Z,97.98
2018-11-03T05:53:45.955Z,96.41
2018-11-03T05:56:14.633Z,98.73
2018-11-03T05:58:43.136Z,100.00
2018-11-03T06:01:11.676Z,99.77
2018-11-03T06:03:40.177Z,95.51
2018-11-03T06:06:08.720Z,96.20
2018-11-03T06:08:37.484Z,94.67
2018-11-03T06:11:06.272Z,94.48
2018-11-03T06:13:34.737Z,95.69
2018-11-03T06:16:03.236Z,96.84
2018-11-03T06:18:31.695Z,97.14
2018-11-03T06:21:00.216Z,97.84
2018-11-03T06:23:28.757Z,98.18
2018-11-03T06:25:57.460Z,99.12
2018-11-03T06:28:25.949Z,98.13
2018-11-03T06:30:54.466Z,99.26
2018-11-03T06:33:23.115Z,98.88
2018-11-03T06:35:51.635Z,93.78
2018-11-03T06:38:20.116Z,94.79
2018-11-03T06:40:48.624Z,93.64
2018-11-03T06:43:17.110Z,98.83
2018-11-03T06:45:45.630Z,97.54
2018-11-03T06:48:14.151Z,96.72
2018-11-03T06:50:42.661Z,95.13
2018-11-03T06:53:11.151Z,92.25
2018-11-03T06:55:39.711Z,92.63
2018-11-03T06:58:08.204Z,91.98
2018-11-03T07:00:36.847Z,93.50
2018-11-03T07:03:05.860Z,97.03
2018-11-03T07:05:34.374Z,95.02
2018-11-03T07:08:03.155Z,94.27
2018-11-03T07:10:31.630Z,96.05
2018-11-03T07:13:00.150Z,94.79
2018-11-03T07:15:29.233Z,95.55
2018-11-03T07:17:57.705Z,94.45
2018-11-03T07:20:26.601Z,94.93
2018-11-03T07:22:55.075Z,94.28
2018-11-03T07:25:23.611Z,91.77
2018-11-03T07:27:52.094Z,92.67
2018-11-03T07:30:20.612Z,90.63
2018-11-03T07:32:49.112Z,88.47
2018-11-03T07:35:17.948Z,87.77
2018-11-03T07:37:46.479Z,88.96
2018-11-03T07:40:14.945Z,89.99
2018-11-03T07:42:43.575Z,89.63
2018-11-03T07:45:11.911Z,88.61
2018-11-03T07:47:40.707Z,91.28
2018-11-03T07:50:11.435Z,87.48
2018-11-03T07:52:40.274Z,89.63
2018-11-03T07:55:10.977Z,87.34
2018-11-03T07:57:39.969Z,84.99
2018-11-03T08:00:10.493Z,85.61
2018-11-03T08:02:38.966Z,84.96
2018-11-03T08:05:08.580Z,86.09
2018-11-03T08:07:37.787Z,85.03
2018-11-03T08:10:07.078Z,86.34
2018-11-03T08:12:35.535Z,85.88
2018-11-03T08:15:04.124Z,82.70
2018-11-03T08:17:32.764Z,84.85
2018-11-03T08:20:01.378Z,84.51
2018-11-03T08:22:30.048Z,84.46
2018-11-03T08:24:58.539Z,86.08
2018-11-03T08:27:27.012Z,83.15
2018-11-03T08:29:55.711Z,84.17
2018-11-03T08:32:24.286Z,84.40
2018-11-03T08:34:52.750Z,81.29
2018-11-03T08:37:21.236Z,79.60
2018-11-03T08:39:49.698Z,81.58
2018-11-03T08:42:18.280Z,84.45
2018-11-03T08:44:46.748Z,82.33
2018-11-03T08:47:15.215Z,81.04
2018-11-03T08:49:43.729Z,81.19
2018-11-03T08:52:12.215Z,79.55
2018-11-03T08:54:40.732Z,78.20
2018-11-03T08:57:09.157Z,77.70
2018-11-03T08:59:37.735Z,79.87
2018-11-03T09:02:06.438Z,80.26
2018-11-03T09:04:34.912Z,82.65
2018-11-03T09:07:03.477Z,82.42
2018-11-03T09:09:31.998Z,81.78
2018-11-03T09:12:00.486Z,82.40
2018-11-03T09:14:29.147Z,80.88
2018-11-03T09:16:57.645Z,80.76
2018-11-03T09:19:26.096Z,85.13
2018-11-03T09:21:54.651Z,82.63
2018-11-03T09:24:23.107Z,81.94
2018-11-03T09:26:51.835Z,82.15
2018-11-03T09:29:20.365Z,82.31
2018-11-03T09:31:48.921Z,82.78
2018-11-03T09:34:17.368Z,84.32
2018-11-03T09:36:45.851Z,85.23
2018-11-03T09:39:14.594Z,83.79
2018-11-03T09:41:42.820Z,83.31
2018-11-03T09:44:11.315Z,84.71
2018-11-03T09:46:39.782Z,85.59
2018-11-03T09:49:08.278Z,85.90
2018-11-03T09:51:36.760Z,84.38
2018-11-03T09:54:05.383Z,82.57
2018-11-03T09:56:34.178Z,82.60
2018-11-03T09:59:02.789Z,82.30
2018-11-03T10:01:31.275Z,83.30
2018-11-03T10:03:59.756Z,80.26
2018-11-03T10:06:28.317Z,79.98
2018-11-03T10:08:56.782Z,78.76
2018-11-03T10:11:25.293Z,79.86
2018-11-03T10:13:53.749Z,78.37
2018-11-03T10:16:22.239Z,80.34
2018-11-03T10:18:51.524Z,77.89
2018-11-03T10:21:20.038Z,75.89
2018-11-03T10:23:54.940Z,78.37
2018-11-03T10:26:23.474Z,78.76
2018-11-03T10:28:51.911Z,79.64
2018-11-03T10:31:20.415Z,77.14
2018-11-03T10:33:48.976Z,77.90
2018-11-03T10:36:17.394Z,79.18
2018-11-03T10:38:46.012Z,77.91
2018-11-03T10:41:14.557Z,79.53
2018-11-03T10:43:43.080Z,80.78
2018-11-03T10:46:11.607Z,82.21
2018-11-03T10:48:40.246Z,77.83
2018-11-03T10:51:09.237Z,79.47
2018-11-03T10:53:37.810Z,76.98
2018-11-03T10:56:07.208Z,79.05
2018-11-03T10:58:35.690Z,78.13
2018-11-03T11:01:09.472Z,79.12
2018-11-03T11:03:43.139Z,76.65
2018-11-03T11:06:16.658Z,75.39
2018-11-03T11:08:50.412Z,79.37
2018-11-03T11:11:24.176Z,82.00
2018-11-03T11:13:52.725Z,81.63
2018-11-03T11:16:21.466Z,79.50
2018-11-03T11:18:49.944Z,78.77
2018-11-03T11:21:18.449Z,80.43
2018-11-03T11:23:47.272Z,79.80
2018-11-03T11:26:15.876Z,79.29
2018-11-03T11:28:44.352Z,79.73
2018-11-03T11:31:12.889Z,75.94
2018-11-03T11:33:41.356Z,77.92
2018-11-03T11:36:09.839Z,74.29
2018-11-03T11:38:38.428Z,74.35
2018-11-03T11:41:06.846Z,75.71
2018-11-03T11:43:35.309Z,78.42
2018-11-03T11:46:03.791Z,80.30
2018-11-03T11:48:32.304Z,75.25
2018-11-03T11:51:00.796Z,75.43
2018-11-03T11:53:29.292Z,75.35
2018-11-03T11:55:57.828Z,73.55
2018-11-03T11:58:26.313Z,78.06
2018-11-03T12:00:54.768Z,76.97
2018-11-03T12:03:23.227Z,75.21
2018-11-03T12:05:52.032Z,75.91
2018-11-03T12:08:21.308Z,75.62
2018-11-03T12:10:49.824Z,79.70
2018-11-03T12:13:18.356Z,78.86
2018-11-03T12:15:46.828Z,79.79
2018-11-03T12:18:15.325Z,79.31
2018-11-03T12:20:43.767Z,81.36
2018-11-03T12:23:12.304Z,82.34
2018-11-03T12:25:40.899Z,81.37
2018-11-03T12:28:09.348Z,80.33
2018-11-03T12:30:37.864Z,79.44
2018-11-03T12:33:07.238Z,76.64
2018-11-03T12:35:35.753Z,78.01
2018-11-03T12:38:04.218Z,77.92
2018-11-03T12:40:32.731Z,78.48
2018-11-03T12:43:01.204Z,78.39
2018-11-03T12:45:29.734Z,79.22
2018-11-03T12:47:58.501Z,78.50
2018-11-03T12:50:26.956Z,76.51
2018-11-03T12:52:55.465Z,79.33
2018-11-03T12:55:24.147Z,78.25
2018-11-03T12:57:52.630Z,79.39
2018-11-03T13:00:21.124Z,77.60
2018-11-03T13:02:49.671Z,77.39
2018-11-03T13:05:18.252Z,73.71
2018-11-03T13:07:46.883Z,74.18
2018-11-03T13:10:15.331Z,77.75
2018-11-03T13:12:43.989Z,77.80
2018-11-03T13:15:13.374Z,75.64
2018-11-03T13:17:41.847Z,77.89
2018-11-03T13:20:12.096Z,78.70
2018-11-03T13:22:40.886Z,77.05
2018-11-03T13:25:10.307Z,78.80
2018-11-03T13:27:39.173Z,74.94
2018-11-03T13:30:09.350Z,76.72
2018-11-03T13:32:37.872Z,77.54
2018-11-03T13:35:07.131Z,76.10
2018-11-03T13:37:35.484Z,76.96
2018-11-03T13:40:04.017Z,78.46
2018-11-03T13:42:33.396Z,77.73
2018-11-03T13:45:02.690Z,80.64
2018-11-03T13:47:31.257Z,80.25
2018-11-03T13:49:59.704Z,77.80
2018-11-03T13:52:28.183Z,81.05
2018-11-03T13:54:56.649Z,84.89
2018-11-03T13:57:25.177Z,84.39
2018-11-03T13:59:53.628Z,84.00
2018-11-03T14:02:22.091Z,84.65
2018-11-03T14:04:50.567Z,83.20
2018-11-03T14:07:19.116Z,83.18
2018-11-03T14:09:47.567Z,82.29
2018-11-03T14:12:16.064Z,79.38
2018-11-03T14:14:44.510Z,81.56
2018-11-03T14:17:13.141Z,80.90
2018-11-03T14:19:41.499Z,79.84
2018-11-03T14:22:09.940Z,80.85
2018-11-03T14:24:38.416Z,78.81
2018-11-03T14:27:06.900Z,80.23
2018-11-03T14:29:35.568Z,80.80
2018-11-03T14:32:04.114Z,78.31
2018-11-03T14:34:32.627Z,77.37
2018-11-03T14:37:01.064Z,77.68
2018-11-03T14:39:29.580Z,76.40
2018-11-03T14:41:58.055Z,80.35
2018-11-03T14:44:26.513Z,81.03
2018-11-03T14:46:54.991Z,79.31
2018-11-03T14:49:24.279Z,77.02
2018-11-03T14:51:52.835Z,79.74
2018-11-03T14:54:21.259Z,80.11
2018-11-03T14:56:49.732Z,81.42
2018-11-03T14:59:18.546Z,81.18
2018-11-03T15:01:47.019Z,80.36
2018-11-03T15:04:15.512Z,80.69
2018-11-03T15:06:44.076Z,78.71
2018-11-03T15:09:12.842Z,79.80
2018-11-03T15:11:41.515Z,78.38
2018-11-03T15:14:10.799Z,76.80
2018-11-03T15:16:39.906Z,79.55
2018-11-03T15:19:08.837Z,79.07
2018-11-03T15:21:37.356Z,78.31
2018-11-03T15:24:05.979Z,77.05
2018-11-03T15:26:34.424Z,77.75
2018-11-03T15:29:03.253Z,81.63
2018-11-03T15:31:31.793Z,82.95
2018-11-03T15:34:00.244Z,82.09
2018-11-03T15:36:28.776Z,81.25
2018-11-03T15:38:57.283Z,78.52
2018-11-03T15:41:25.902Z,83.44
2018-11-03T15:43:54.268Z,83.44
2018-11-03T15:46:22.731Z,83.82
2018-11-03T15:48:51.205Z,83.57
2018-11-03T15:51:19.635Z,81.20
2018-11-03T15:53:48.106Z,77.95
2018-11-03T15:56:16.774Z,76.58
2018-11-03T15:58:45.243Z,74.21
2018-11-03T16:01:13.705Z,76.73
2018-11-03T16:03:42.200Z,81.81
2018-11-03T16:06:10.691Z,81.25
2018-11-03T16:08:39.169Z,78.94
2018-11-03T16:11:07.653Z,77.69
2018-11-03T16:13:36.126Z,79.77
2018-11-03T16:16:04.716Z,80.31
2018-11-03T16:18:33.189Z,81.61
2018-11-03T16:21:01.696Z,82.81
2018-11-03T16:23:30.302Z,81.21
2018-11-03T16:25:58.901Z,79.96
2018-11-03T16:28:27.369Z,83.66
2018-11-03T16:30:56.036Z,84.83
2018-11-03T16:33:24.523Z,85.38
2018-11-03T16:35:53.069Z,87.21
2018-11-03T16:38:21.561Z,87.68
2018-11-03T16:40:50.411Z,86.24
2018-11-03T16:43:18.952Z,83.15
2018-11-03T16:45:47.605Z,82.75
2018-11-03T16:48:16.101Z,80.28
2018-11-03T16:50:44.590Z,79.56
2018-11-03T16:53:13.319Z,84.65
2018-11-03T16:55:41.814Z,81.89
2018-11-03T16:58:10.296Z,81.76
2018-11-03T17:00:38.792Z,84.09
2018-11-03T17:03:07.758Z,82.90
2018-11-03T17:05:36.251Z,82.21
2018-11-03T17:08:05.253Z,79.33
2018-11-03T17:10:33.708Z,82.70
2018-11-03T17:13:02.236Z,83.02
2018-11-03T17:15:30.755Z,81.70
2018-11-03T17:17:59.235Z,83.60
2018-11-03T17:20:27.759Z,86.26
2018-11-03T17:22:56.271Z,91.52
2018-11-03T17:25:24.789Z,90.73
2018-11-03T17:27:53.267Z,88.79
2018-11-03T17:30:21.954Z,92.77
2018-11-03T17:32:50.437Z,93.66
2018-11-03T17:35:18.988Z,94.15
2018-11-03T17:37:47.488Z,95.60
2018-11-03T17:40:16.184Z,96.18
2018-11-03T17:42:45.663Z,97.41
2018-11-03T17:45:14.303Z,93.61
2018-11-03T17:47:42.823Z,93.22
2018-11-03T17:50:12.786Z,92.07
2018-11-03T17:52:41.487Z,90.75
2018-11-03T17:55:10.587Z,88.72
2018-11-03T17:57:39.213Z,90.16
2018-11-03T18:00:11.478Z,88.99
2018-11-03T18:02:40.112Z,87.32
2018-11-03T18:05:08.584Z,87.60
2018-11-03T18:07:37.151Z,88.02
2018-11-03T18:10:06.911Z,85.53
2018-11-03T18:12:35.477Z,84.32
2018-11-03T18:15:04.066Z,85.28
2018-11-03T18:17:32.564Z,87.54
2018-11-03T18:20:01.077Z,88.80
2018-11-03T18:22:29.550Z,87.05
2018-11-03T18:24:58.111Z,82.30
2018-11-03T18:27:26.548Z,82.96
2018-11-03T18:29:55.019Z,81.86
2018-11-03T18:32:23.553Z,81.31
2018-11-03T18:34:52.371Z,81.99
2018-11-03T18:37:20.899Z,82.67
2018-11-03T18:39:49.420Z,83.72
2018-11-03T18:42:17.933Z,80.59
2018-11-03T18:44:46.409Z,82.76
2018-11-03T18:47:14.875Z,79.23
2018-11-03T18:49:43.357Z,81.09
2018-11-03T18:52:12.028Z,80.45
2018-11-03T18:54:40.496Z,77.66
2018-11-03T18:57:08.946Z,78.66
2018-11-03T18:59:37.564Z,77.36
2018-11-03T19:02:06.525Z,77.17
2018-11-03T19:04:35.031Z,75.38
2018-11-03T19:07:03.528Z,76.49
2018-11-03T19:09:32.013Z,78.55
2018-11-03T19:12:00.557Z,79.29
2018-11-03T19:14:29.068Z,78.60
2018-11-03T19:16:57.523Z,80.06
2018-11-03T19:19:56.396Z,79.67
2018-11-03T19:22:24.825Z,81.65
2018-11-03T19:24:53.567Z,82.90
2018-11-03T19:27:22.343Z,80.51
2018-11-03T19:29:50.981Z,81.40
2018-11-03T19:32:19.536Z,81.54
2018-11-03T19:34:48.015Z,80.50
2018-11-03T19:37:16.509Z,80.10
2018-11-03T19:39:45.308Z,81.09
2018-11-03T19:42:14.092Z,83.30
2018-11-03T19:44:42.762Z,81.60
2018-11-03T19:47:11.239Z,83.20
2018-11-03T19:49:39.715Z,82.69
2018-11-03T19:52:08.184Z,82.39
2018-11-03T19:54:36.687Z,82.01
2018-11-03T19:57:05.360Z,82.26
2018-11-03T19:59:33.996Z,79.46
2018-11-03T20:02:02.437Z,80.00
2018-11-03T20:04:30.937Z,80.49
2018-11-03T20:06:59.395Z,80.43
2018-11-03T20:09:28.140Z,79.33
2018-11-03T20:11:56.638Z,79.96
2018-11-03T20:14:25.106Z,81.74
2018-11-03T20:16:53.543Z,80.89
2018-11-03T20:19:22.015Z,80.44
2018-11-03T20:21:50.671Z,78.78
2018-11-03T20:24:19.168Z,78.20
2018-11-03T20:26:47.875Z,79.18
2018-11-03T20:29:16.492Z,78.33
2018-11-03T20:31:44.965Z,77.86
2018-11-03T20:34:13.939Z,79.58
2018-11-03T20:36:43.018Z,76.11
2018-11-03T20:39:12.024Z,78.79
2018-11-03T20:41:40.561Z,78.84
2018-11-03T20:44:09.173Z,76.44
2018-11-03T20:46:38.295Z,77.63
2018-11-03T20:49:07.421Z,77.67
2018-11-03T20:51:35.912Z,76.21
2018-11-03T20:54:04.375Z,76.41
2018-11-03T20:56:32.884Z,76.39
2018-11-03T20:59:01.325Z,79.36
2018-11-03T21:01:29.843Z,77.22
2018-11-03T21:03:58.882Z,78.55
2018-11-03T21:06:27.380Z,78.67
2018-11-03T21:08:55.840Z,77.16
2018-11-03T21:11:24.346Z,79.87
2018-11-03T21:13:52.881Z,78.00
2018-11-03T21:16:21.485Z,77.48
2018-11-03T21:18:50.401Z,77.68
2018-11-03T21:21:18.844Z,77.80
2018-11-03T21:23:47.557Z,82.05
2018-11-03T21:26:16.285Z,81.81
2018-11-03T21:28:44.798Z,78.95
2018-11-03T21:31:13.287Z,80.66
2018-11-03T21:33:42.264Z,79.35
2018-11-03T21:36:10.774Z,78.51
2018-11-03T21:38:39.344Z,79.75
2018-11-03T21:41:08.217Z,81.05
2018-11-03T21:43:37.048Z,80.46
2018-11-03T21:46:06.491Z,79.18
2018-11-03T21:48:35.307Z,81.24
2018-11-03T21:51:03.913Z,82.34
2018-11-03T21:53:32.541Z,80.59
2018-11-03T21:56:01.149Z,80.97
2018-11-03T21:58:29.780Z,81.78
2018-11-03T22:00:58.472Z,81.49
2018-11-03T22:03:27.207Z,82.11
2018-11-03T22:05:55.899Z,80.69
2018-11-03T22:08:24.383Z,80.55
2018-11-03T22:10:52.883Z,82.22
2018-11-03T22:13:21.362Z,82.77
2018-11-03T22:15:49.898Z,81.76
2018-11-03T22:18:18.384Z,78.65
2018-11-03T22:20:46.932Z,79.27
2018-11-03T22:23:15.473Z,80.37
2018-11-03T22:25:43.959Z,77.48
2018-11-03T22:28:12.356Z,77.07
2018-11-03T22:30:40.837Z,78.19
2018-11-03T22:33:09.323Z,78.22
2018-11-03T22:35:37.792Z,78.34
2018-11-03T22:38:06.574Z,78.07
2018-11-03T22:40:35.307Z,78.32
2018-11-03T22:43:03.769Z,80.94
2018-11-03T22:45:32.242Z,81.46
2018-11-03T22:48:00.703Z,79.80
2018-11-03T22:50:29.488Z,80.31
2018-11-03T22:52:58.019Z,79.03
2018-11-03T22:55:26.582Z,80.20
2018-11-03T22:57:55.092Z,78.43
2018-11-03T23:00:23.792Z,79.09
2018-11-03T23:02:52.555Z,80.42
2018-11-03T23:05:21.011Z,78.64
2018-11-03T23:07:49.866Z,79.32
2018-11-03T23:10:18.346Z,79.27
2018-11-03T23:12:46.921Z,82.43
2018-11-03T23:15:15.391Z,81.62
2018-11-03T23:17:43.863Z,78.12
2018-11-03T23:20:13.906Z,78.93
2018-11-03T23:22:42.392Z,78.71
2018-11-03T23:25:11.115Z,77.91
2018-11-03T23:27:39.857Z,77.79
2018-11-03T23:30:10.665Z,78.48
2018-11-03T23:32:39.316Z,79.40
2018-11-03T23:35:10.109Z,77.97
2018-11-03T23:37:38.588Z,79.28
2018-11-03T23:40:08.341Z,77.89
2018-11-03T23:42:36.870Z,75.13
2018-11-03T23:45:06.363Z,76.97
2018-11-03T23:47:35.011Z,76.91
2018-11-03T23:50:03.824Z,77.00
2018-11-03T23:52:34.085Z,76.76
2018-11-03T23:55:04.577Z,78.00
2018-11-03T23:57:33.140Z,75.88
